Time;durP1;ratioP1;P1;durP2;ratioP2;P2;SDS_P1;SDS_P2;PMS_P1;PMS_P2;Temp;Humidity;BMP_temperature;BMP_pressure;BME280_temperature;BME280_humidity;BME280_pressure;Samples;Min_cycle;Max_cycle;Signal;HPM_P1;HPM_P2
2022/06/07 00:01:38;;;;;;;1.17;1.08;;;16.80;99.10;;;;;;5050623;28;20017;-44
2022/06/07 00:04:04;;;;;;;13.10;1.15;;;16.80;99.20;;;;;;5051965;28;20090;-47
2022/06/07 00:06:30;;;;;;;1.08;0.63;;;16.70;99.00;;;;;;5052082;28;20045;-46
2022/06/07 00:08:56;;;;;;;0.70;0.70;;;16.70;99.40;;;;;;5051675;28;20120;-46
2022/06/07 00:11:22;;;;;;;1.20;1.00;;;16.70;99.30;;;;;;5051962;28;20053;-47
2022/06/07 00:13:48;;;;;;;0.60;0.60;;;16.70;99.40;;;;;;5051836;28;20071;-46
2022/06/07 00:16:15;;;;;;;1.25;0.98;;;16.70;99.50;;;;;;5051682;28;20056;-44
2022/06/07 00:18:40;;;;;;;0.73;0.70;;;16.70;99.40;;;;;;5051429;28;20104;-44
2022/06/07 00:21:06;;;;;;;1.17;0.70;;;16.60;99.60;;;;;;5050548;28;20121;-52
2022/06/07 00:23:34;;;;;;;4.03;0.85;;;16.60;99.70;;;;;;5051863;28;20028;-44
2022/06/07 00:26:00;;;;;;;2.70;0.80;;;16.50;99.90;;;;;;5051903;28;20453;-46
2022/06/07 00:28:27;;;;;;;0.85;0.68;;;16.50;99.90;;;;;;5051558;28;20033;-45
2022/06/07 00:30:53;;;;;;;1.65;0.70;;;16.40;99.90;;;;;;5050464;28;20024;-44
2022/06/07 00:33:21;;;;;;;0.70;0.70;;;16.40;99.90;;;;;;5051711;28;20029;-44
2022/06/07 00:35:47;;;;;;;4.15;0.70;;;16.40;99.90;;;;;;5051510;28;20510;-45
2022/06/07 00:38:12;;;;;;;5.93;0.75;;;16.50;99.90;;;;;;5051413;28;20031;-45
2022/06/07 00:40:38;;;;;;;1.48;0.80;;;16.50;99.90;;;;;;5051103;28;20572;-45
2022/06/07 00:43:04;;;;;;;6.50;1.20;;;16.40;99.90;;;;;;5051525;28;20052;-44
2022/06/07 00:45:30;;;;;;;1.23;0.85;;;16.40;99.90;;;;;;5050144;28;20052;-46
2022/06/07 00:47:56;;;;;;;1.45;0.70;;;16.40;99.90;;;;;;5051292;28;20053;-45
2022/06/07 00:50:35;;;;;;;0.80;0.65;;;16.40;99.90;;;;;;5050146;28;20431;-45
2022/06/07 00:53:01;;;;;;;1.23;0.88;;;16.30;99.90;;;;;;5051399;28;20024;-47
2022/06/07 00:55:27;;;;;;;1.63;0.80;;;16.30;99.90;;;;;;5050003;28;20112;-46
2022/06/07 00:57:52;;;;;;;2.22;0.80;;;16.30;99.90;;;;;;5051026;28;20024;-45
2022/06/07 01:00:23;;;;;;;4.78;1.27;;;16.40;99.90;;;;;;5051405;28;20489;-47
2022/06/07 01:02:49;;;;;;;0.93;0.80;;;16.40;99.90;;;;;;5050144;28;20026;-45
2022/06/07 01:05:15;;;;;;;2.55;1.05;;;16.40;99.90;;;;;;5053028;28;20091;-50
2022/06/07 01:13:09;;;;;;;2.47;1.35;;;16.30;99.90;;;;;;5055248;28;20082;-46
2022/06/07 01:15:35;;;;;;;5.20;1.35;;;16.30;99.90;;;;;;5055057;28;20113;-52
2022/06/07 01:18:01;;;;;;;1.02;0.90;;;16.30;99.90;;;;;;5054785;28;20096;-47
2022/06/07 01:20:28;;;;;;;1.23;0.68;;;16.30;99.90;;;;;;5055290;28;20067;-48
2022/06/07 01:22:54;;;;;;;2.33;1.00;;;16.30;99.90;;;;;;5055140;28;20439;-48
2022/06/07 01:25:19;;;;;;;0.60;0.60;;;16.40;99.90;;;;;;5054994;28;20021;-48
2022/06/07 01:27:45;;;;;;;2.38;1.10;;;16.40;99.90;;;;;;5054584;28;20404;-50
2022/06/07 01:30:11;;;;;;;0.95;0.80;;;16.40;99.90;;;;;;5055052;28;20079;-47
2022/06/07 01:32:37;;;;;;;4.13;0.88;;;16.40;99.90;;;;;;5054823;28;20032;-45
2022/06/07 01:35:03;;;;;;;2.17;0.98;;;16.50;99.90;;;;;;5054746;28;20036;-46
2022/06/07 01:37:29;;;;;;;2.80;0.68;;;16.50;99.90;;;;;;5054425;28;20025;-47
2022/06/07 01:42:38;;;;;;;1.23;0.90;;;16.50;99.90;;;;;;5054459;28;20565;-48
2022/06/07 01:45:05;;;;;;;4.78;0.70;;;16.50;99.90;;;;;;5054815;28;20058;-49
2022/06/07 01:47:32;;;;;;;1.27;0.70;;;16.50;99.90;;;;;;5054349;28;20025;-49
2022/06/07 01:49:59;;;;;;;0.70;0.70;;;16.50;99.90;;;;;;5054677;28;20032;-45
2022/06/07 01:52:28;;;;;;;0.65;0.65;;;16.50;99.90;;;;;;5054562;28;20037;-46
2022/06/07 01:54:53;;;;;;;1.30;0.90;;;16.50;99.90;;;;;;5054210;28;20119;-45
2022/06/07 01:57:20;;;;;;;6.35;1.00;;;16.50;99.90;;;;;;5054009;28;20491;-50
2022/06/07 01:59:46;;;;;;;1.73;0.80;;;16.50;99.90;;;;;;5054380;28;20017;-45
2022/06/07 02:02:11;;;;;;;4.60;0.93;;;16.60;99.90;;;;;;5054374;28;20021;-45
2022/06/07 02:04:38;;;;;;;2.17;0.90;;;16.50;99.90;;;;;;5078786;22;20516;-44
2022/06/07 02:07:05;;;;;;;1.95;0.80;;;16.60;99.90;;;;;;5051284;28;20040;-44
2022/06/07 02:09:31;;;;;;;3.70;0.70;;;16.60;99.90;;;;;;5054929;28;20392;-47
2022/06/07 02:11:57;;;;;;;6.75;1.10;;;16.60;99.90;;;;;;5055138;28;20108;-47
2022/06/07 02:14:23;;;;;;;1.30;0.80;;;16.50;99.90;;;;;;5054739;28;20037;-47
2022/06/07 02:16:48;;;;;;;1.30;0.82;;;16.60;99.90;;;;;;5052652;28;20499;-47
2022/06/07 02:19:14;;;;;;;0.90;0.90;;;16.60;99.90;;;;;;5054739;28;20021;-46
2022/06/07 02:21:40;;;;;;;1.88;0.70;;;16.60;99.90;;;;;;5054398;28;20025;-46
2022/06/07 02:24:07;;;;;;;0.95;0.88;;;16.60;99.90;;;;;;5054529;28;20424;-48
2022/06/07 02:26:55;;;;;;;0.75;0.75;;;16.60;99.90;;;;;;5054250;28;20063;-50
2022/06/07 02:29:45;;;;;;;0.70;0.70;;;16.60;99.90;;;;;;5053945;28;20041;-49
2022/06/07 02:32:16;;;;;;;0.93;0.50;;;16.60;99.90;;;;;;5051958;28;20029;-47
2022/06/07 02:34:46;;;;;;;1.58;0.70;;;16.60;99.90;;;;;;5049116;28;20083;-48
2022/06/07 02:37:13;;;;;;;2.55;0.50;;;16.60;99.90;;;;;;5053926;28;20044;-48
2022/06/07 02:39:39;;;;;;;2.58;0.85;;;16.60;99.90;;;;;;5054832;28;20549;-49
2022/06/07 02:42:09;;;;;;;1.00;0.70;;;16.70;99.90;;;;;;5054182;28;20046;-47
2022/06/07 02:44:35;;;;;;;1.13;0.80;;;16.60;99.90;;;;;;5054385;28;20036;-45
2022/06/07 02:47:00;;;;;;;1.58;0.95;;;16.60;99.90;;;;;;5053809;28;20025;-49
2022/06/07 02:49:26;;;;;;;1.55;0.70;;;16.60;99.90;;;;;;5053640;28;20037;-48
2022/06/07 02:51:51;;;;;;;0.77;0.77;;;16.60;99.90;;;;;;5053719;28;20037;-44
2022/06/07 02:54:17;;;;;;;2.60;1.00;;;16.60;99.90;;;;;;5053657;28;20044;-46
2022/06/07 02:56:42;;;;;;;0.63;0.50;;;16.60;99.90;;;;;;5053594;28;20104;-48
2022/06/07 02:59:08;;;;;;;0.70;0.70;;;16.50;99.90;;;;;;5052897;28;20029;-48
2022/06/07 03:01:33;;;;;;;4.53;0.82;;;16.50;99.90;;;;;;5054050;28;20021;-50
2022/06/07 03:03:59;;;;;;;1.00;0.85;;;16.50;99.90;;;;;;5053759;28;20044;-45
2022/06/07 03:06:25;;;;;;;1.10;0.70;;;16.40;99.90;;;;;;5053615;28;20086;-47
2022/06/07 03:08:50;;;;;;;1.15;1.05;;;16.40;99.90;;;;;;5052993;28;20017;-49
2022/06/07 03:11:16;;;;;;;2.60;0.90;;;16.30;99.90;;;;;;5053869;28;20039;-49
2022/06/07 03:13:41;;;;;;;2.00;0.82;;;16.20;99.90;;;;;;5052224;28;20056;-46
2022/06/07 03:16:07;;;;;;;2.83;0.68;;;16.20;99.90;;;;;;5053691;28;20048;-47
2022/06/07 03:18:32;;;;;;;6.22;1.13;;;16.20;99.90;;;;;;5053236;28;20483;-49
2022/06/07 03:20:58;;;;;;;6.32;1.10;;;16.10;99.90;;;;;;5053460;28;20074;-45
2022/06/07 03:23:24;;;;;;;4.13;1.15;;;16.10;99.90;;;;;;5053289;28;20041;-49
2022/06/07 03:25:49;;;;;;;1.10;0.90;;;16.00;99.90;;;;;;5053363;28;20029;-46
2022/06/07 03:28:15;;;;;;;2.45;1.10;;;16.00;99.90;;;;;;5052162;28;20033;-48
2022/06/07 03:30:41;;;;;;;1.80;1.17;;;16.00;99.90;;;;;;5053431;28;20025;-50
2022/06/07 03:33:08;;;;;;;0.98;0.65;;;16.10;99.90;;;;;;5052758;28;20033;-47
2022/06/07 03:35:33;;;;;;;2.65;1.25;;;16.00;99.90;;;;;;5053421;28;20040;-46
2022/06/07 03:37:59;;;;;;;1.45;1.00;;;16.00;99.90;;;;;;5052828;28;20033;-46
2022/06/07 03:40:43;;;;;;;0.82;0.82;;;16.00;99.90;;;;;;5052587;28;20049;-48
2022/06/07 03:43:08;;;;;;;1.13;1.10;;;16.00;99.90;;;;;;5052799;28;20477;-46
2022/06/07 03:45:35;;;;;;;1.10;0.90;;;16.10;99.90;;;;;;5052784;28;20048;-48
2022/06/07 03:48:00;;;;;;;1.85;0.82;;;16.10;99.90;;;;;;5053170;28;20100;-48
2022/06/07 03:50:26;;;;;;;1.05;0.80;;;16.10;99.90;;;;;;5053244;28;20056;-48
2022/06/07 03:52:51;;;;;;;1.98;1.10;;;16.10;99.90;;;;;;5051828;28;20086;-49
2022/06/07 03:55:17;;;;;;;0.93;0.93;;;16.20;99.90;;;;;;5052825;28;20036;-46
2022/06/07 03:57:42;;;;;;;0.80;0.80;;;16.20;99.90;;;;;;5052585;28;20032;-49
2022/06/07 04:00:08;;;;;;;0.88;0.85;;;16.30;99.90;;;;;;5052234;28;20021;-50
2022/06/07 04:02:35;;;;;;;3.10;1.08;;;16.30;99.90;;;;;;5052392;28;20029;-49
2022/06/07 04:05:00;;;;;;;2.30;1.27;;;16.40;99.90;;;;;;5052441;28;20163;-46
2022/06/07 04:10:10;;;;;;;3.67;1.25;;;16.30;99.90;;;;;;5052102;28;20115;-46
2022/06/07 04:12:36;;;;;;;1.10;1.10;;;16.30;99.90;;;;;;5051396;28;20068;-48
2022/06/07 04:15:01;;;;;;;1.60;1.50;;;16.30;99.90;;;;;;5052587;28;20032;-50
2022/06/07 04:17:27;;;;;;;1.30;1.30;;;16.30;99.90;;;;;;5051958;28;20055;-48
2022/06/07 04:19:53;;;;;;;1.52;1.20;;;16.30;99.90;;;;;;5051990;28;20029;-47
2022/06/07 04:22:18;;;;;;;2.13;1.50;;;16.30;99.90;;;;;;5051461;28;20070;-46
2022/06/07 04:24:44;;;;;;;1.30;1.20;;;16.30;99.90;;;;;;5052195;28;20063;-48
2022/06/07 04:27:10;;;;;;;3.53;1.45;;;16.50;99.90;;;;;;5051728;28;20116;-47
2022/06/07 04:29:35;;;;;;;3.70;1.35;;;16.60;99.90;;;;;;5051945;28;20076;-48
2022/06/07 04:32:01;;;;;;;5.28;1.27;;;16.60;99.90;;;;;;5052358;28;20033;-50
2022/06/07 04:34:27;;;;;;;2.65;1.27;;;16.70;99.90;;;;;;5052207;28;20507;-49
2022/06/07 04:36:53;;;;;;;1.10;1.10;;;16.70;99.90;;;;;;5051440;28;20029;-47
2022/06/07 04:39:19;;;;;;;4.00;0.90;;;16.70;99.90;;;;;;5051797;28;20013;-45
2022/06/07 04:41:44;;;;;;;3.47;1.30;;;16.70;99.90;;;;;;5050937;28;20108;-47
2022/06/07 04:44:10;;;;;;;1.50;1.40;;;16.70;99.90;;;;;;5051352;28;20032;-46
2022/06/07 04:46:35;;;;;;;4.82;1.52;;;16.80;99.90;;;;;;5048112;28;20080;-45
2022/06/07 04:49:01;;;;;;;1.55;1.48;;;16.80;99.90;;;;;;5031215;28;20108;-49
2022/06/07 04:51:29;;;;;;;2.40;1.60;;;16.80;99.90;;;;;;5031577;28;20112;-49
2022/06/07 04:53:57;;;;;;;1.52;1.42;;;16.80;99.90;;;;;;5032379;28;20410;-47
2022/06/07 04:56:34;;;;;;;3.33;1.65;;;16.90;99.90;;;;;;5031264;28;20021;-44
2022/06/07 04:59:01;;;;;;;3.42;1.25;;;17.00;99.90;;;;;;5035913;28;20013;-48
2022/06/07 05:01:45;;;;;;;2.35;1.42;;;17.10;99.90;;;;;;5050595;28;20033;-49
2022/06/07 05:04:11;;;;;;;1.98;1.40;;;17.50;99.90;;;;;;5047220;28;20100;-48
2022/06/07 05:06:42;;;;;;;2.42;1.50;;;17.40;99.90;;;;;;5031153;28;20074;-45
2022/06/07 05:09:12;;;;;;;2.53;1.67;;;17.50;99.90;;;;;;5029750;28;20458;-46
2022/06/07 05:11:38;;;;;;;5.57;1.77;;;17.60;99.90;;;;;;5031361;28;20048;-48
2022/06/07 05:14:05;;;;;;;3.17;1.65;;;17.90;99.90;;;;;;5031113;28;20493;-46
2022/06/07 05:16:31;;;;;;;3.03;1.80;;;18.20;99.90;;;;;;5031357;28;20489;-45
2022/06/07 05:18:57;;;;;;;1.48;1.27;;;18.40;99.90;;;;;;5036505;28;20106;-47
2022/06/07 05:21:25;;;;;;;2.97;1.20;;;18.70;99.90;;;;;;5051030;28;20389;-45
2022/06/07 05:23:51;;;;;;;1.85;1.25;;;19.50;99.90;;;;;;5050726;28;20017;-44
2022/06/07 05:26:37;;;;;;;3.20;1.05;;;20.40;99.70;;;;;;5051024;28;20071;-43
2022/06/07 05:29:04;;;;;;;3.67;1.25;;;21.00;98.00;;;;;;5050745;28;20096;-44
2022/06/07 05:31:30;;;;;;;1.80;1.00;;;21.20;97.90;;;;;;5051199;28;20032;-47
2022/06/07 05:33:55;;;;;;;5.05;1.10;;;21.60;97.30;;;;;;5050846;28;20033;-45
2022/06/07 05:36:21;;;;;;;1.27;1.17;;;22.30;97.00;;;;;;5038904;28;20021;-47
2022/06/07 05:38:47;;;;;;;1.10;0.90;;;23.30;95.10;;;;;;5029260;28;20396;-46
2022/06/07 05:41:22;;;;;;;5.70;1.73;;;24.50;93.60;;;;;;5030963;28;20493;-46
2022/06/07 05:43:47;;;;;;;2.70;1.13;;;25.50;91.20;;;;;;5031114;28;20032;-47
2022/06/07 05:46:13;;;;;;;1.52;1.42;;;26.10;90.20;;;;;;5030897;28;20108;-45
2022/06/07 05:48:38;;;;;;;1.83;0.85;;;26.30;88.80;;;;;;5030681;28;20105;-45
2022/06/07 05:51:04;;;;;;;2.42;1.00;;;27.00;87.60;;;;;;5032265;28;20436;-45
2022/06/07 05:53:30;;;;;;;2.33;1.15;;;27.50;85.90;;;;;;5034555;28;20106;-47
2022/06/07 05:55:56;;;;;;;2.97;1.15;;;28.10;84.40;;;;;;5034447;28;20030;-48
2022/06/07 05:58:23;;;;;;;2.58;0.77;;;28.60;81.20;;;;;;5034318;28;20026;-48
2022/06/07 06:00:48;;;;;;;12.27;3.20;;;29.00;79.90;;;;;;5034474;28;20523;-48
2022/06/07 06:03:14;;;;;;;1.15;0.68;;;29.50;77.80;;;;;;5034285;28;20037;-48
2022/06/07 06:05:49;;;;;;;4.25;1.33;;;29.80;77.30;;;;;;5034065;28;20037;-43
2022/06/07 06:11:11;;;;;;;0.98;0.70;;;30.90;72.70;;;;;;5034411;28;20112;-45
2022/06/07 06:13:37;;;;;;;1.80;0.77;;;30.70;70.70;;;;;;5034306;28;20033;-47
2022/06/07 06:16:05;;;;;;;2.65;0.68;;;30.40;71.60;;;;;;5034151;28;20042;-48
2022/06/07 06:18:31;;;;;;;0.82;0.70;;;30.60;70.10;;;;;;5034061;28;20041;-44
2022/06/07 06:20:56;;;;;;;3.17;0.75;;;30.60;69.30;;;;;;5034087;28;20114;-45
2022/06/07 06:23:22;;;;;;;1.25;0.63;;;30.50;70.00;;;;;;5032868;28;20109;-45
2022/06/07 06:25:47;;;;;;;1.25;0.70;;;30.70;69.60;;;;;;5033981;28;20086;-45
2022/06/07 06:28:13;;;;;;;2.13;0.75;;;30.50;68.80;;;;;;5033571;28;20110;-45
2022/06/07 06:30:42;;;;;;;2.08;0.60;;;30.10;70.00;;;;;;5033775;28;20036;-46
2022/06/07 06:33:08;;;;;;;1.00;0.60;;;30.40;70.10;;;;;;5034122;28;20032;-45
2022/06/07 06:35:33;;;;;;;3.63;0.70;;;31.00;67.90;;;;;;5039049;28;20025;-47
2022/06/07 06:37:59;;;;;;;0.70;0.70;;;30.70;67.90;;;;;;5053666;28;20041;-48
2022/06/07 06:40:25;;;;;;;4.75;1.00;;;30.30;67.70;;;;;;5052357;28;20071;-47
2022/06/07 06:42:50;;;;;;;2.70;1.02;;;29.90;68.40;;;;;;5053506;28;20104;-48
2022/06/07 06:45:16;;;;;;;2.95;0.50;;;30.20;68.00;;;;;;5053336;28;20037;-45
2022/06/07 06:47:44;;;;;;;1.98;0.70;;;30.10;68.10;;;;;;5053079;28;20017;-45
2022/06/07 06:50:09;;;;;;;1.48;0.70;;;30.10;68.30;;;;;;5053910;28;20021;-46
2022/06/07 06:52:35;;;;;;;1.52;0.60;;;30.10;68.50;;;;;;5052446;28;20036;-45
2022/06/07 06:55:01;;;;;;;2.35;0.70;;;30.60;68.10;;;;;;5053639;28;20554;-48
2022/06/07 06:57:26;;;;;;;2.55;0.70;;;30.60;67.50;;;;;;5053324;28;20075;-46
2022/06/07 06:59:52;;;;;;;0.98;0.60;;;30.80;66.30;;;;;;5053274;28;20048;-50
2022/06/07 07:02:19;;;;;;;2.15;0.57;;;30.90;67.20;;;;;;5051208;28;20025;-45
2022/06/07 07:04:44;;;;;;;1.77;0.90;;;31.20;66.30;;;;;;5052596;28;20024;-46
2022/06/07 07:07:10;;;;;;;1.05;0.73;;;31.90;66.40;;;;;;5052384;28;20548;-45
2022/06/07 07:09:35;;;;;;;2.85;0.77;;;32.60;64.60;;;;;;5052779;28;20033;-47
2022/06/07 07:12:01;;;;;;;0.73;0.50;;;33.10;63.40;;;;;;5053138;28;20023;-44
2022/06/07 07:14:27;;;;;;;2.72;0.70;;;32.70;62.40;;;;;;5053336;28;20040;-44
2022/06/07 07:16:53;;;;;;;4.22;0.70;;;31.90;63.60;;;;;;5039314;28;20033;-44
2022/06/07 07:19:20;;;;;;;1.05;0.75;;;31.60;63.60;;;;;;5043252;28;20025;-45
2022/06/07 07:21:50;;;;;;;2.20;1.20;;;31.40;64.50;;;;;;5053426;28;20017;-46
2022/06/07 07:24:22;;;;;;;0.80;0.50;;;30.60;64.20;;;;;;5053866;28;20523;-46
2022/06/07 07:26:48;;;;;;;3.13;0.65;;;29.80;65.70;;;;;;5051685;28;20489;-49
2022/06/07 07:29:16;;;;;;;2.78;0.32;;;29.90;65.50;;;;;;5052173;28;20493;-44
2022/06/07 07:31:42;;;;;;;0.90;0.50;;;30.50;65.90;;;;;;5052888;28;20036;-46
2022/06/07 07:34:11;;;;;;;0.93;0.60;;;31.10;64.10;;;;;;5052633;28;20032;-46
2022/06/07 07:36:41;;;;;;;2.40;0.95;;;31.40;63.10;;;;;;5052977;28;20049;-45
2022/06/07 07:39:08;;;;;;;1.02;0.47;;;31.40;62.50;;;;;;5052720;28;20028;-46
2022/06/07 07:41:36;;;;;;;2.53;0.80;;;31.40;63.00;;;;;;5052733;28;20024;-45
2022/06/07 07:44:04;;;;;;;2.55;0.55;;;31.50;62.20;;;;;;5052803;28;20023;-45
2022/06/07 07:46:33;;;;;;;2.15;0.60;;;31.60;61.90;;;;;;5052851;28;20095;-45
2022/06/07 07:48:59;;;;;;;4.00;0.60;;;31.80;61.40;;;;;;5051582;28;20036;-46
2022/06/07 07:51:31;;;;;;;5.97;3.50;;;32.00;61.50;;;;;;5053157;28;20029;-45
2022/06/07 07:53:58;;;;;;;1.55;1.05;;;32.10;61.80;;;;;;5053043;28;20037;-45
2022/06/07 07:56:25;;;;;;;1.38;0.60;;;32.60;58.70;;;;;;5053005;28;20028;-45
2022/06/07 07:58:51;;;;;;;1.08;0.35;;;32.50;59.50;;;;;;5051048;28;20021;-46
2022/06/07 08:01:21;;;;;;;1.45;0.60;;;32.40;59.40;;;;;;5052704;28;20051;-44
2022/06/07 08:03:48;;;;;;;2.15;0.88;;;32.50;58.50;;;;;;5052286;28;20039;-46
2022/06/07 08:06:17;;;;;;;1.85;0.57;;;32.10;58.30;;;;;;5074333;22;20048;-47
2022/06/07 08:08:43;;;;;;;3.60;0.40;;;32.00;59.30;;;;;;5049724;28;20017;-50
2022/06/07 08:11:09;;;;;;;1.98;0.68;;;32.30;57.30;;;;;;5051802;28;20078;-48
2022/06/07 08:13:36;;;;;;;1.30;0.55;;;31.80;57.20;;;;;;5051632;28;20100;-50
2022/06/07 08:16:04;;;;;;;1.20;0.55;;;31.20;57.70;;;;;;5051282;28;20530;-54
2022/06/07 08:18:29;;;;;;;1.20;0.40;;;30.20;59.00;;;;;;5051227;28;20107;-45
2022/06/07 08:21:01;;;;;;;0.95;0.60;;;29.30;59.80;;;;;;5051973;28;20118;-47
2022/06/07 08:23:28;;;;;;;7.93;0.50;;;28.60;61.00;;;;;;5050001;28;20543;-51
2022/06/07 08:25:55;;;;;;;3.72;0.70;;;27.80;62.60;;;;;;5049848;28;20036;-47
2022/06/07 08:28:21;;;;;;;3.13;0.93;;;27.00;63.20;;;;;;5049486;28;20021;-44
2022/06/07 08:30:46;;;;;;;1.40;0.70;;;26.80;62.90;;;;;;5049902;28;20400;-47
2022/06/07 08:38:41;;;;;;;1.40;0.70;;;26.80;64.50;;;;;;5051178;28;20534;-46
2022/06/07 08:41:16;;;;;;;1.45;1.10;;;26.40;66.30;;;;;;5051663;28;20043;-48
2022/06/07 08:43:42;;;;;;;1.23;0.80;;;26.60;66.90;;;;;;5051906;28;20021;-46
2022/06/07 08:46:09;;;;;;;1.25;0.73;;;26.90;65.80;;;;;;5051358;28;20044;-47
2022/06/07 08:48:35;;;;;;;2.15;0.70;;;27.10;65.90;;;;;;5051151;28;20024;-45
2022/06/07 08:51:17;;;;;;;1.65;0.85;;;27.20;65.40;;;;;;5051229;28;20091;-48
2022/06/07 08:53:47;;;;;;;2.25;0.70;;;26.70;65.30;;;;;;5051216;28;20057;-49
2022/06/07 08:56:25;;;;;;;1.23;0.63;;;26.40;67.60;;;;;;5051243;28;20032;-49
2022/06/07 08:58:52;;;;;;;5.63;1.02;;;26.30;68.40;;;;;;5051068;28;20028;-47
2022/06/07 09:01:56;;;;;;;3.70;1.15;;;26.30;67.90;;;;;;5051470;28;20021;-47
2022/06/07 09:04:31;;;;;;;4.30;1.08;;;26.30;68.60;;;;;;5051869;28;20025;-46
2022/06/07 09:07:00;;;;;;;4.03;1.13;;;26.20;68.20;;;;;;5050795;28;20040;-46
2022/06/07 09:12:17;;;;;;;1.30;0.80;;;26.50;67.10;;;;;;5051972;28;20043;-49
2022/06/07 09:14:53;;;;;;;2.15;0.80;;;26.80;67.00;;;;;;5050612;28;20082;-52
2022/06/07 09:17:33;;;;;;;2.10;0.70;;;26.60;66.10;;;;;;5050851;28;20017;-49
2022/06/07 09:19:59;;;;;;;1.00;0.52;;;25.80;67.80;;;;;;5051126;28;20029;-48
2022/06/07 09:22:37;;;;;;;1.75;1.05;;;24.90;68.50;;;;;;5051269;28;20439;-45
2022/06/07 09:25:28;;;;;;;1.80;0.80;;;24.20;69.20;;;;;;5049904;28;20033;-47
2022/06/07 09:27:56;;;;;;;0.60;0.60;;;24.10;71.10;;;;;;5053390;28;20021;-50
2022/06/07 09:30:25;;;;;;;2.05;1.75;;;24.00;70.90;;;;;;5055083;28;20044;-46
2022/06/07 09:32:51;;;;;;;29.33;22.42;;;23.80;71.80;;;;;;5054792;28;20054;-51
2022/06/07 09:35:42;;;;;;;3.13;1.05;;;23.50;72.40;;;;;;5054713;28;20593;-47
2022/06/07 09:38:27;;;;;;;1.25;0.80;;;23.80;71.30;;;;;;5054441;28;20021;-46
2022/06/07 09:40:53;;;;;;;1.88;0.70;;;24.30;71.10;;;;;;5055093;28;20442;-46
2022/06/07 09:43:22;;;;;;;1.95;1.20;;;24.70;70.40;;;;;;5054742;28;20096;-50
2022/06/07 09:46:05;;;;;;;1.38;0.60;;;25.00;69.90;;;;;;5054538;28;20048;-46
2022/06/07 09:48:32;;;;;;;1.10;0.57;;;25.00;68.60;;;;;;5054398;28;20535;-50
2022/06/07 09:51:06;;;;;;;0.88;0.65;;;24.80;67.50;;;;;;5054790;28;20427;-47
2022/06/07 09:53:43;;;;;;;1.23;0.77;;;24.50;67.90;;;;;;5054415;28;20461;-46
2022/06/07 09:56:24;;;;;;;1.63;0.50;;;24.20;68.80;;;;;;5054314;28;20074;-48
2022/06/07 09:59:06;;;;;;;0.38;0.38;;;24.20;69.30;;;;;;5054054;28;20060;-47
2022/06/07 10:01:47;;;;;;;1.58;0.85;;;24.30;70.30;;;;;;5054190;28;20116;-50
2022/06/07 10:04:44;;;;;;;1.90;0.77;;;24.40;70.10;;;;;;5054144;28;20389;-46
2022/06/07 10:07:26;;;;;;;5.55;0.70;;;24.40;70.50;;;;;;5053771;28;20029;-48
2022/06/07 10:10:32;;;;;;;3.45;0.75;;;24.50;69.50;;;;;;5054376;28;20041;-46
2022/06/07 10:13:34;;;;;;;0.80;0.65;;;24.30;69.60;;;;;;5013001;28;20107;-46
2022/06/07 10:16:14;;;;;;;1.90;0.73;;;24.10;70.60;;;;;;5053436;28;20036;-46
2022/06/07 10:18:52;;;;;;;3.85;0.60;;;23.90;71.70;;;;;;5053583;28;20018;-48
2022/06/07 10:21:30;;;;;;;1.00;0.73;;;23.70;72.90;;;;;;5054042;28;20492;-49
2022/06/07 10:24:08;;;;;;;4.00;0.70;;;23.70;72.80;;;;;;5052534;28;20025;-47
2022/06/07 10:26:57;;;;;;;3.45;0.77;;;23.60;73.20;;;;;;5053717;28;20035;-47
2022/06/07 10:29:42;;;;;;;1.05;0.98;;;23.60;70.30;;;;;;5053976;28;20025;-45
2022/06/07 10:32:38;;;;;;;3.55;0.60;;;23.50;69.80;;;;;;5053623;28;20029;-47
2022/06/07 10:35:15;;;;;;;0.77;0.60;;;23.50;71.20;;;;;;5053622;28;20021;-47
2022/06/07 10:37:56;;;;;;;8.95;1.98;;;23.70;70.30;;;;;;5053168;28;20021;-45
2022/06/07 10:40:48;;;;;;;0.95;0.60;;;23.80;71.10;;;;;;5053627;28;20365;-47
2022/06/07 10:43:22;;;;;;;2.17;0.65;;;24.00;70.90;;;;;;5049667;28;20033;-46
2022/06/07 10:45:50;;;;;;;2.25;0.50;;;24.20;70.10;;;;;;5053345;28;20029;-48
2022/06/07 10:48:19;;;;;;;1.08;0.70;;;24.30;71.10;;;;;;5053234;28;20033;-46
2022/06/07 10:51:06;;;;;;;1.00;0.60;;;24.20;71.20;;;;;;5053605;28;20055;-46
2022/06/07 10:53:46;;;;;;;2.88;0.50;;;24.10;72.40;;;;;;5053565;28;20025;-47
2022/06/07 10:56:27;;;;;;;3.20;0.82;;;24.20;73.00;;;;;;5053235;28;20041;-49
2022/06/07 10:58:54;;;;;;;2.85;0.73;;;24.40;72.60;;;;;;5052936;28;20492;-46
2022/06/07 11:01:35;;;;;;;2.15;1.90;;;24.30;71.60;;;;;;5052684;28;20047;-46
2022/06/07 11:10:10;;;;;;;0.65;0.65;;;24.00;72.00;;;;;;5053615;28;20067;-47
2022/06/07 11:13:02;;;;;;;1.42;0.50;;;24.00;69.60;;;;;;5053407;28;20484;-46
2022/06/07 11:15:44;;;;;;;0.52;0.52;;;24.10;72.20;;;;;;5052588;28;20451;-49
2022/06/07 11:18:15;;;;;;;0.98;0.75;;;24.20;72.90;;;;;;5052600;28;20017;-47
2022/06/07 11:20:50;;;;;;;2.05;0.70;;;24.10;72.80;;;;;;5053300;28;20028;-46
2022/06/07 11:23:31;;;;;;;0.60;0.60;;;24.00;73.80;;;;;;5051572;28;20032;-46
2022/06/07 11:26:06;;;;;;;0.80;0.80;;;23.90;71.80;;;;;;5052665;28;20029;-49
2022/06/07 11:28:53;;;;;;;1.08;0.70;;;23.80;73.60;;;;;;5052372;28;20025;-48
2022/06/07 11:31:21;;;;;;;1.05;0.70;;;23.80;75.50;;;;;;5052708;28;20095;-49
2022/06/07 11:33:47;;;;;;;2.35;1.23;;;23.90;75.30;;;;;;5051329;28;20025;-48
2022/06/07 11:36:12;;;;;;;2.25;0.75;;;24.10;74.40;;;;;;5052440;28;20056;-47
2022/06/07 11:38:53;;;;;;;3.55;0.60;;;24.10;74.40;;;;;;5052109;28;20016;-46
2022/06/07 11:41:36;;;;;;;0.93;0.80;;;24.10;73.00;;;;;;5052729;28;20032;-46
2022/06/07 11:44:23;;;;;;;0.77;0.70;;;24.20;74.60;;;;;;5052969;28;20021;-49
2022/06/07 11:46:52;;;;;;;2.15;0.80;;;24.20;69.80;;;;;;5028067;28;20049;-47
2022/06/07 11:49:20;;;;;;;1.38;0.60;;;24.20;71.90;;;;;;5031885;28;20029;-44
2022/06/07 11:51:55;;;;;;;0.82;0.68;;;24.20;71.40;;;;;;5032548;28;20493;-45
2022/06/07 11:54:29;;;;;;;1.45;0.60;;;24.20;73.10;;;;;;5037764;28;20104;-50
2022/06/07 11:57:01;;;;;;;1.77;1.33;;;24.30;71.10;;;;;;5039861;28;20041;-54
2022/06/07 11:59:43;;;;;;;1.88;0.50;;;24.30;70.10;;;;;;5032001;28;20036;-47
2022/06/07 12:02:17;;;;;;;3.85;0.82;;;24.20;70.80;;;;;;5032600;28;20025;-45
2022/06/07 12:04:45;;;;;;;1.55;0.50;;;24.10;71.20;;;;;;5033632;28;20029;-50
2022/06/07 12:07:29;;;;;;;4.68;0.60;;;24.20;68.90;;;;;;5031666;28;20504;-52
2022/06/07 12:09:58;;;;;;;2.08;1.83;;;24.20;69.60;;;;;;5031943;28;20088;-52
2022/06/07 12:12:37;;;;;;;1.52;0.63;;;24.40;69.10;;;;;;5032303;28;20034;-50
2022/06/07 12:15:18;;;;;;;2.75;0.75;;;24.50;71.10;;;;;;5032244;28;20090;-48
2022/06/07 12:17:56;;;;;;;1.85;0.70;;;24.60;70.80;;;;;;5030811;28;20053;-47
2022/06/07 12:20:28;;;;;;;0.57;0.52;;;24.60;71.30;;;;;;5032110;28;20455;-45
2022/06/07 12:22:57;;;;;;;4.75;0.73;;;24.40;72.00;;;;;;5039354;28;20060;-49
2022/06/07 12:25:24;;;;;;;3.72;0.80;;;24.40;73.10;;;;;;5051450;28;20443;-47
2022/06/07 12:27:52;;;;;;;2.65;0.73;;;24.40;73.30;;;;;;5048578;28;20046;-48
2022/06/07 12:30:29;;;;;;;2.05;0.63;;;24.40;73.80;;;;;;5041876;28;20028;-47
2022/06/07 12:32:56;;;;;;;13.32;8.95;;;24.50;72.90;;;;;;5035068;28;20032;-51
2022/06/07 12:35:27;;;;;;;38.70;28.90;;;24.50;72.30;;;;;;5033053;28;20033;-50
2022/06/07 12:37:59;;;;;;;1.38;1.27;;;24.50;72.60;;;;;;5054572;28;20549;-47
2022/06/07 12:40:26;;;;;;;0.88;0.55;;;24.60;72.50;;;;;;5051679;28;20114;-52
2022/06/07 12:42:53;;;;;;;1.40;0.70;;;24.60;73.20;;;;;;5033801;28;20390;-50
2022/06/07 12:45:26;;;;;;;1.05;0.65;;;24.50;72.70;;;;;;5031705;28;20127;-47
2022/06/07 12:48:05;;;;;;;1.05;0.50;;;24.40;74.40;;;;;;5030926;28;20421;-47
2022/06/07 12:50:34;;;;;;;0.52;0.52;;;24.40;72.10;;;;;;5030006;28;20032;-52
2022/06/07 12:53:00;;;;;;;3.95;1.35;;;24.30;72.80;;;;;;5032257;28;20037;-47
2022/06/07 12:55:29;;;;;;;1.42;0.55;;;24.30;72.70;;;;;;5031289;28;20397;-50
2022/06/07 12:57:59;;;;;;;1.45;0.60;;;24.20;73.70;;;;;;5031114;28;20363;-47
2022/06/07 13:00:53;;;;;;;1.70;0.60;;;24.30;73.80;;;;;;5033376;28;20087;-50
2022/06/07 13:03:32;;;;;;;2.63;0.93;;;24.40;74.60;;;;;;5035245;28;20038;-47
2022/06/07 13:06:15;;;;;;;2.22;0.65;;;24.30;74.00;;;;;;5035471;28;20529;-46
2022/06/07 13:08:41;;;;;;;2.17;0.50;;;24.40;72.40;;;;;;5043101;28;20041;-45
2022/06/07 13:11:14;;;;;;;1.65;1.23;;;24.40;73.60;;;;;;5055465;28;20131;-47
2022/06/07 13:13:41;;;;;;;9.35;0.60;;;24.30;74.50;;;;;;5055437;28;20036;-45
2022/06/07 13:16:28;;;;;;;2.20;0.85;;;24.30;74.40;;;;;;5055367;28;20063;-46
2022/06/07 13:19:05;;;;;;;4.57;0.90;;;24.20;74.20;;;;;;5053039;28;20051;-46
2022/06/07 13:21:35;;;;;;;0.52;0.47;;;24.30;73.40;;;;;;5051288;28;20029;-48
2022/06/07 13:24:01;;;;;;;1.63;0.70;;;24.30;73.90;;;;;;5037102;28;20021;-45
2022/06/07 13:26:30;;;;;;;0.60;0.55;;;24.40;73.30;;;;;;5046804;28;20025;-46
2022/06/07 13:29:10;;;;;;;1.88;0.60;;;24.60;73.20;;;;;;5034667;28;20029;-45